Hauptseite
METAR-TAF:

METAR-TAF

Flughäfen :

Kwajalein, Marshallinseln

Breite: 08-43N, Länge: 167-44E, Höhe: 3 m

Beobachtung

Neuester Wetterbericht von vor 18 Minuten, um 19:40 UTC
Wind 11 kt aus Ost/Nordost
Temperatur
Luftdruck 1012 hPa
Sichtweite: 16.1 km
Aufgelockert bewölkt in der Höhe von 1700 ft
Aufgelockert bewölkt in der Höhe von 2900 ft
Aufgelockert bewölkt in der Höhe von 5500 ft

METAR: PKWA 261940Z AUTO 07011KT 10SM SCT017 SCT029 SCT055 A2987 RMK AO2 TSNO

Zeit: 07:58 (19:58 UTC)

Prognose

Neuester Wetterbericht von vor 2 Stunden und 24 Minuten, um 17:34 UTC
Gültige Prognose vom 26 um 18 UTC bis 27 um 18 UTC
Wind 14 kt aus Ost/Nordost
Sichtweite: 10 km
Aufgelockert bewölkt in der Höhe von 1800 ft
Durchbrochene Bewölkung in der Höhe von 12000 ft
Schauer in der Nähe,

TAF: PKWA 261734Z 2618/2718 07014KT P6SM VCSH SCT018 BKN120

Wetterbeobachtungen und Prognosen von mehr als 4000 Flughäfen (METAR und TAF Bericht).

Die verfügbaren Stationen werden durch gelbe und rote Markierungen auf der Karte dargestellt.

Führen Sie die Maus auf sie, um den Namen der Station zu sehen.

Darauf klicken, um die Beobachtung von Wetterbeobachtungen und Prognosen zu sehen.

Um die Karte zu ändern : klicken Sie auf den grünen Tasten mit einem schwarzen Kreuz Zum Vergrößern, auf den grünen Button mit einem Gedankenstrich zu verkleinern, oder auf die grünen Pfeile für benachbarte Karten.


METAR-TAF: